createdAt,value
2023-04-30T00:01:22.285Z,17.37
2023-04-30T00:03:48.836Z,16.97
2023-04-30T00:06:15.987Z,18.50
2023-04-30T00:08:42.618Z,17.67
2023-04-30T00:11:09.130Z,18.33
2023-04-30T00:13:35.611Z,18.30
2023-04-30T00:16:02.133Z,19.00
2023-04-30T00:18:28.684Z,19.53
2023-04-30T00:20:55.112Z,19.47
2023-04-30T00:23:21.651Z,17.93
2023-04-30T00:25:48.116Z,19.90
2023-04-30T00:28:14.568Z,19.90
2023-04-30T00:30:41.131Z,19.37
2023-04-30T00:33:07.737Z,19.43
2023-04-30T00:35:34.233Z,20.20
2023-04-30T00:38:00.688Z,19.30
2023-04-30T00:40:27.135Z,21.07
2023-04-30T00:42:55.694Z,21.73
2023-04-30T00:45:23.439Z,22.63
2023-04-30T00:47:49.979Z,21.60
2023-04-30T00:50:16.723Z,21.13
2023-04-30T00:52:44.241Z,22.20
2023-04-30T00:55:12.161Z,23.10
2023-04-30T00:57:39.078Z,21.40
2023-04-30T01:00:06.328Z,22.57
2023-04-30T01:02:33.112Z,23.77
2023-04-30T01:04:59.638Z,23.43
2023-04-30T01:07:28.370Z,22.37
2023-04-30T01:09:55.203Z,21.90
2023-04-30T01:12:33.177Z,21.97
2023-04-30T01:15:25.023Z,23.13
2023-04-30T01:18:14.737Z,21.83
2023-04-30T01:20:46.286Z,22.37
2023-04-30T01:23:50.061Z,21.87
2023-04-30T01:26:25.919Z,22.47
2023-04-30T01:28:53.371Z,23.03
2023-04-30T01:31:20.549Z,21.10
2023-04-30T01:33:47.064Z,24.00
2023-04-30T01:36:31.974Z,22.30
2023-04-30T01:39:22.280Z,22.00
2023-04-30T01:42:29.197Z,19.87
2023-04-30T01:45:17.820Z,21.50
2023-04-30T01:47:53.834Z,21.30
2023-04-30T01:50:39.757Z,22.27
2023-04-30T01:53:16.996Z,21.43
2023-04-30T01:55:49.742Z,21.03
2023-04-30T01:58:16.713Z,21.23
2023-04-30T02:00:43.189Z,21.37
2023-04-30T02:03:09.816Z,21.10
2023-04-30T02:05:36.452Z,20.47
2023-04-30T02:08:03.397Z,19.57
2023-04-30T02:10:30.678Z,20.20
2023-04-30T02:12:57.238Z,20.13
2023-04-30T02:15:23.893Z,20.43
2023-04-30T02:17:50.634Z,19.53
2023-04-30T02:20:17.228Z,18.77
2023-04-30T02:22:43.713Z,19.20
2023-04-30T02:25:12.387Z,19.57
2023-04-30T02:27:38.991Z,17.90
2023-04-30T02:30:06.466Z,17.93
2023-04-30T02:32:33.249Z,17.87
2023-04-30T02:34:59.825Z,16.43
2023-04-30T02:37:26.411Z,16.57
2023-04-30T02:39:53.558Z,15.97
2023-04-30T02:42:20.293Z,16.07
2023-04-30T02:44:46.869Z,16.57
2023-04-30T02:47:13.412Z,15.03
2023-04-30T02:49:40.108Z,16.30
2023-04-30T02:52:09.510Z,16.07
2023-04-30T02:54:36.496Z,17.07
2023-04-30T02:57:03.449Z,15.50
2023-04-30T02:59:29.994Z,16.03
2023-04-30T03:01:56.493Z,16.33
2023-04-30T03:04:23.531Z,16.80
2023-04-30T03:06:50.079Z,16.17
2023-04-30T03:09:16.804Z,16.20
2023-04-30T03:11:43.259Z,15.70
2023-04-30T03:14:09.729Z,16.93
2023-04-30T03:16:36.701Z,16.17
2023-04-30T03:19:03.228Z,16.33
2023-04-30T03:21:29.723Z,15.77
2023-04-30T03:23:56.180Z,13.90
2023-04-30T03:26:22.684Z,14.90
2023-04-30T03:28:49.585Z,14.40
2023-04-30T03:31:16.102Z,13.60
2023-04-30T03:33:42.694Z,14.27
2023-04-30T03:36:09.189Z,15.07
2023-04-30T03:38:35.637Z,13.80
2023-04-30T03:41:02.250Z,13.70
2023-04-30T03:43:28.809Z,14.10
2023-04-30T03:45:55.334Z,13.97
2023-04-30T03:48:21.846Z,13.57
2023-04-30T03:50:48.445Z,12.50
2023-04-30T03:53:14.919Z,12.47
2023-04-30T03:55:42.063Z,13.13
2023-04-30T03:58:08.617Z,11.47
2023-04-30T04:00:35.164Z,8.00
2023-04-30T04:03:01.727Z,7.63
2023-04-30T04:05:29.217Z,7.63
2023-04-30T04:07:55.870Z,6.63
2023-04-30T04:10:22.447Z,7.43
2023-04-30T04:12:49.067Z,7.77
2023-04-30T04:15:15.592Z,7.43
2023-04-30T04:17:42.302Z,7.10
2023-04-30T04:20:10.138Z,7.83
2023-04-30T04:22:37.958Z,8.57
2023-04-30T04:25:04.642Z,8.90
2023-04-30T04:27:31.202Z,9.60
2023-04-30T04:29:57.738Z,8.90
2023-04-30T04:32:24.736Z,8.10
2023-04-30T04:34:51.483Z,8.27
2023-04-30T04:37:18.133Z,8.13
2023-04-30T04:39:45.262Z,8.07
2023-04-30T04:42:12.060Z,8.40
2023-04-30T04:44:39.411Z,8.00
2023-04-30T04:47:06.165Z,7.50
2023-04-30T04:49:32.885Z,8.63
2023-04-30T04:51:59.659Z,8.17
2023-04-30T04:54:26.229Z,7.70
2023-04-30T04:56:52.779Z,8.17
2023-04-30T04:59:19.288Z,9.10
2023-04-30T05:01:45.902Z,8.23
2023-04-30T05:04:14.050Z,8.53
2023-04-30T05:06:41.532Z,8.50
2023-04-30T05:09:09.450Z,8.63
2023-04-30T05:11:36.499Z,9.50
2023-04-30T05:14:03.202Z,9.03
2023-04-30T05:16:30.216Z,9.33
2023-04-30T05:18:56.863Z,9.43
2023-04-30T05:21:23.506Z,9.70
2023-04-30T05:23:49.983Z,10.20
2023-04-30T05:26:16.721Z,9.57
2023-04-30T05:28:43.265Z,9.33
2023-04-30T05:31:09.837Z,9.83
2023-04-30T05:33:37.173Z,9.53
2023-04-30T05:36:03.916Z,10.03
2023-04-30T05:38:30.786Z,9.77
2023-04-30T05:40:57.297Z,10.60
2023-04-30T05:43:23.762Z,10.20
2023-04-30T05:45:50.473Z,10.33
2023-04-30T05:48:17.020Z,10.47
2023-04-30T05:50:43.723Z,11.33
2023-04-30T05:53:10.226Z,10.57
2023-04-30T05:55:36.948Z,11.93
2023-04-30T05:58:03.453Z,11.70
2023-04-30T06:00:30.148Z,12.20
2023-04-30T06:02:56.732Z,12.47
2023-04-30T06:05:23.369Z,12.77
2023-04-30T06:07:50.247Z,11.63
2023-04-30T06:10:16.814Z,12.47
2023-04-30T06:12:43.259Z,12.23
2023-04-30T06:15:10.025Z,12.03
2023-04-30T06:17:37.061Z,11.67
2023-04-30T06:20:06.981Z,13.13
2023-04-30T06:22:34.205Z,13.63
2023-04-30T06:25:00.959Z,13.53
2023-04-30T06:27:32.299Z,13.83
2023-04-30T06:30:00.877Z,13.47
2023-04-30T06:32:27.707Z,13.03
2023-04-30T06:34:55.308Z,13.50
2023-04-30T06:37:21.854Z,13.10
2023-04-30T06:39:48.969Z,10.50
2023-04-30T06:42:15.453Z,9.60
2023-04-30T06:44:42.108Z,7.50
2023-04-30T06:47:08.672Z,7.10
2023-04-30T06:49:35.292Z,7.10
2023-04-30T06:52:01.951Z,5.18
2023-04-30T06:54:28.532Z,4.70
2023-04-30T06:56:54.997Z,4.13
2023-04-30T06:59:21.656Z,4.13
2023-04-30T07:01:48.363Z,4.90
2023-04-30T07:04:14.881Z,4.60
2023-04-30T07:06:41.787Z,4.57
2023-04-30T07:09:08.853Z,4.27
2023-04-30T07:11:35.453Z,4.47
2023-04-30T07:14:02.095Z,3.93
2023-04-30T07:16:28.689Z,3.43
2023-04-30T07:18:55.366Z,3.40
2023-04-30T07:21:21.991Z,2.93
2023-04-30T07:23:51.500Z,3.15
2023-04-30T07:26:18.379Z,3.30
2023-04-30T07:28:48.009Z,3.13
2023-04-30T07:31:16.587Z,3.13
2023-04-30T07:33:43.527Z,3.57
2023-04-30T07:36:11.414Z,3.77
2023-04-30T07:38:37.909Z,3.87
2023-04-30T07:41:04.391Z,3.43
2023-04-30T07:43:31.912Z,3.37
2023-04-30T07:45:59.420Z,3.23
2023-04-30T07:48:25.885Z,3.23
2023-04-30T07:50:53.018Z,2.70
2023-04-30T07:53:19.832Z,3.57
2023-04-30T07:55:46.595Z,3.10
2023-04-30T07:58:13.226Z,3.57
2023-04-30T08:00:40.066Z,3.90
2023-04-30T08:03:06.840Z,3.67
2023-04-30T08:05:33.397Z,3.57
2023-04-30T08:08:00.819Z,3.40
2023-04-30T08:10:27.387Z,3.23
2023-04-30T08:12:53.921Z,3.40
2023-04-30T08:15:23.462Z,2.70
2023-04-30T08:17:51.278Z,3.07
2023-04-30T08:20:18.153Z,4.13
2023-04-30T08:22:45.427Z,3.10
2023-04-30T08:25:12.372Z,3.03
2023-04-30T08:27:39.463Z,2.97
2023-04-30T08:30:09.028Z,3.23
2023-04-30T08:32:36.344Z,2.77
2023-04-30T08:35:07.146Z,2.77
2023-04-30T08:37:34.080Z,3.03
2023-04-30T08:40:00.574Z,2.33
2023-04-30T08:42:36.547Z,2.27
2023-04-30T08:45:04.264Z,2.57
2023-04-30T08:47:31.140Z,2.33
2023-04-30T08:49:57.804Z,2.60
2023-04-30T08:52:25.175Z,2.13
2023-04-30T08:54:54.191Z,1.97
2023-04-30T08:57:20.896Z,2.47
2023-04-30T08:59:47.740Z,2.30
2023-04-30T09:02:14.467Z,2.50
2023-04-30T09:04:41.203Z,2.17
2023-04-30T09:07:09.551Z,2.13
2023-04-30T09:09:39.432Z,2.50
2023-04-30T09:12:18.393Z,2.40
2023-04-30T09:15:03.648Z,2.53
2023-04-30T09:17:31.199Z,2.23
2023-04-30T09:20:08.421Z,1.90
2023-04-30T09:22:36.766Z,2.00
2023-04-30T09:25:03.416Z,1.83
2023-04-30T09:27:29.905Z,2.30
2023-04-30T09:29:57.014Z,1.80
2023-04-30T09:32:23.693Z,1.90
2023-04-30T09:34:50.408Z,1.87
2023-04-30T09:37:17.014Z,1.77
2023-04-30T09:39:54.260Z,2.10
2023-04-30T09:42:21.472Z,2.13
2023-04-30T09:44:48.568Z,2.10
2023-04-30T09:47:19.286Z,2.40
2023-04-30T09:49:52.539Z,2.23
2023-04-30T09:52:20.331Z,2.20
2023-04-30T09:54:47.218Z,2.13
2023-04-30T09:57:15.584Z,2.20
2023-04-30T09:59:46.632Z,2.30
2023-04-30T10:02:16.973Z,2.13
2023-04-30T10:04:45.063Z,1.70
2023-04-30T10:07:22.237Z,2.53
2023-04-30T10:10:03.125Z,3.00
2023-04-30T10:12:44.437Z,2.50
2023-04-30T10:15:31.414Z,2.10
2023-04-30T10:18:04.331Z,2.00
2023-04-30T10:20:32.276Z,1.60
2023-04-30T10:22:59.761Z,2.07
2023-04-30T10:25:27.979Z,1.97
2023-04-30T10:27:54.549Z,1.50
2023-04-30T10:30:22.380Z,1.60
2023-04-30T10:32:55.612Z,1.87
2023-04-30T10:35:28.915Z,1.60
2023-04-30T10:38:01.518Z,1.50
2023-04-30T10:40:28.168Z,1.67
2023-04-30T10:42:55.270Z,1.43
2023-04-30T10:45:38.399Z,1.43
2023-04-30T10:48:06.536Z,1.20
2023-04-30T10:50:33.365Z,1.30
2023-04-30T10:53:03.960Z,1.23
2023-04-30T10:55:31.413Z,1.70
2023-04-30T10:57:58.666Z,1.60
2023-04-30T11:00:29.507Z,1.57
2023-04-30T11:02:58.121Z,2.17
2023-04-30T11:05:38.383Z,1.60
2023-04-30T11:08:06.355Z,1.40
2023-04-30T11:10:34.784Z,1.43
2023-04-30T11:13:10.316Z,1.60
2023-04-30T11:15:45.482Z,1.60
2023-04-30T11:18:13.596Z,1.40
2023-04-30T11:20:44.290Z,1.90
2023-04-30T11:23:28.181Z,1.63
2023-04-30T11:26:04.839Z,1.13
2023-04-30T11:28:35.706Z,1.43
2023-04-30T11:31:02.685Z,1.40
2023-04-30T11:33:30.595Z,1.67
2023-04-30T11:35:59.327Z,1.50
2023-04-30T11:38:29.970Z,1.57
2023-04-30T11:40:57.927Z,1.33
2023-04-30T11:43:28.908Z,1.70
2023-04-30T11:46:21.504Z,1.77
2023-04-30T11:48:48.194Z,1.33
2023-04-30T11:51:23.939Z,1.50
2023-04-30T11:53:52.348Z,1.60
2023-04-30T11:56:21.422Z,1.30
2023-04-30T11:58:49.413Z,1.70
2023-04-30T12:01:16.719Z,1.50
2023-04-30T12:03:50.603Z,1.40
2023-04-30T12:06:27.590Z,1.80
2023-04-30T12:08:55.276Z,1.50
2023-04-30T12:11:26.546Z,1.77
2023-04-30T12:13:54.917Z,1.70
2023-04-30T12:16:21.557Z,1.97
2023-04-30T12:18:49.005Z,1.40
2023-04-30T12:21:17.024Z,1.23
2023-04-30T12:23:45.123Z,1.73
2023-04-30T12:26:11.781Z,1.63
2023-04-30T12:28:38.391Z,2.00
2023-04-30T12:31:05.951Z,1.30
2023-04-30T12:33:32.726Z,1.40
2023-04-30T12:35:59.537Z,1.37
2023-04-30T12:38:26.079Z,1.67
2023-04-30T12:40:52.664Z,1.20
2023-04-30T12:43:19.242Z,1.80
2023-04-30T12:45:51.821Z,1.50
2023-04-30T12:48:23.715Z,1.37
2023-04-30T12:51:02.965Z,1.57
2023-04-30T12:53:33.576Z,1.60
2023-04-30T12:56:15.488Z,1.43
2023-04-30T12:58:47.657Z,1.37
2023-04-30T13:01:17.312Z,1.50
2023-04-30T13:03:44.103Z,1.60
2023-04-30T13:06:10.855Z,1.77
2023-04-30T13:08:49.769Z,1.50
2023-04-30T13:11:26.754Z,1.80
2023-04-30T13:13:55.624Z,1.30
2023-04-30T13:16:22.923Z,1.53
2023-04-30T13:18:49.593Z,1.33
2023-04-30T13:21:16.104Z,1.53
2023-04-30T13:23:52.112Z,1.27
2023-04-30T13:26:21.463Z,1.30
2023-04-30T13:28:48.062Z,1.80
2023-04-30T13:31:14.697Z,1.60
2023-04-30T13:33:41.600Z,1.40
2023-04-30T13:36:08.086Z,1.33
2023-04-30T13:38:34.578Z,1.37
2023-04-30T13:41:01.546Z,1.73
2023-04-30T13:43:28.421Z,1.50
2023-04-30T13:45:54.922Z,1.50
2023-04-30T13:48:21.815Z,1.80
2023-04-30T13:50:48.407Z,1.93
2023-04-30T13:53:15.273Z,1.50
2023-04-30T13:55:41.854Z,1.27
2023-04-30T13:58:08.371Z,1.53
2023-04-30T14:00:34.867Z,1.67
2023-04-30T14:03:01.811Z,1.30
2023-04-30T14:05:28.431Z,1.90
2023-04-30T14:07:54.923Z,1.63
2023-04-30T14:10:21.598Z,1.27
2023-04-30T14:12:48.825Z,1.43
2023-04-30T14:15:15.571Z,1.00
2023-04-30T14:17:42.137Z,1.20
2023-04-30T14:20:09.330Z,1.00
2023-04-30T14:22:38.485Z,1.37
2023-04-30T14:25:05.635Z,1.57
2023-04-30T14:27:32.361Z,2.13
2023-04-30T14:29:58.850Z,1.50
2023-04-30T14:32:26.110Z,1.27
2023-04-30T14:34:53.348Z,1.30
2023-04-30T14:37:19.997Z,1.20
2023-04-30T14:39:46.679Z,1.43
2023-04-30T14:42:13.194Z,0.90
2023-04-30T14:44:40.419Z,1.80
2023-04-30T14:47:07.005Z,1.50
2023-04-30T14:49:33.625Z,1.37
2023-04-30T14:52:00.168Z,1.07
2023-04-30T14:54:26.952Z,1.33
2023-04-30T14:56:53.541Z,1.53
2023-04-30T14:59:20.146Z,1.30
2023-04-30T15:01:46.900Z,1.33
2023-04-30T15:04:13.452Z,1.20
2023-04-30T15:06:40.153Z,1.30
2023-04-30T15:09:07.040Z,1.33
2023-04-30T15:11:33.706Z,1.20
2023-04-30T15:14:00.373Z,1.50
2023-04-30T15:16:27.624Z,2.07
2023-04-30T15:18:54.340Z,1.20
2023-04-30T15:21:20.967Z,1.07
2023-04-30T15:23:47.729Z,1.27
2023-04-30T15:26:15.381Z,1.07
2023-04-30T15:28:41.907Z,1.27
2023-04-30T15:31:08.621Z,1.43
2023-04-30T15:33:39.677Z,1.60
2023-04-30T15:36:06.509Z,1.50
2023-04-30T15:38:33.264Z,1.60
2023-04-30T15:40:59.789Z,1.17
2023-04-30T15:43:26.351Z,1.20
2023-04-30T15:45:53.006Z,1.50
2023-04-30T15:48:19.520Z,1.67
2023-04-30T15:50:46.071Z,1.93
2023-04-30T15:53:12.625Z,1.67
2023-04-30T15:55:39.195Z,1.50
2023-04-30T15:58:05.995Z,1.53
2023-04-30T16:00:33.683Z,1.37
2023-04-30T16:03:00.553Z,1.40
2023-04-30T16:05:27.143Z,1.23
2023-04-30T16:07:54.502Z,1.10
2023-04-30T16:10:21.613Z,1.53
2023-04-30T16:12:48.644Z,1.40
2023-04-30T16:15:15.917Z,1.30
2023-04-30T16:17:42.457Z,1.33
2023-04-30T16:20:11.293Z,1.43
2023-04-30T16:22:37.930Z,1.53
2023-04-30T16:25:04.785Z,1.90
2023-04-30T16:27:31.416Z,1.80
2023-04-30T16:29:58.250Z,1.60
2023-04-30T16:32:25.354Z,1.63
2023-04-30T16:34:52.186Z,1.67
2023-04-30T16:37:18.866Z,1.50
2023-04-30T16:39:45.538Z,1.40
2023-04-30T16:42:12.271Z,1.63
2023-04-30T16:44:38.781Z,1.60
2023-04-30T16:47:05.260Z,1.97
2023-04-30T16:49:31.722Z,1.40
2023-04-30T16:51:58.356Z,1.30
2023-04-30T16:54:24.879Z,1.43
2023-04-30T16:56:51.337Z,1.40
2023-04-30T16:59:17.774Z,1.80
2023-04-30T17:01:44.419Z,1.50
2023-04-30T17:04:12.189Z,1.53
2023-04-30T17:06:39.208Z,1.37
2023-04-30T17:09:05.902Z,1.20
2023-04-30T17:11:33.637Z,1.33
2023-04-30T17:14:00.472Z,1.87
2023-04-30T17:16:27.086Z,1.57
2023-04-30T17:18:53.667Z,1.50
2023-04-30T17:21:20.424Z,1.47
2023-04-30T17:23:46.887Z,1.57
2023-04-30T17:26:13.361Z,1.40
2023-04-30T17:28:39.967Z,1.60
2023-04-30T17:31:09.355Z,1.43
2023-04-30T17:33:35.852Z,1.50
2023-04-30T17:36:02.704Z,1.83
2023-04-30T17:38:29.252Z,1.47
2023-04-30T17:40:57.567Z,1.57
2023-04-30T17:43:24.395Z,1.60
2023-04-30T17:45:53.789Z,1.63
2023-04-30T17:48:20.398Z,1.83
2023-04-30T17:50:47.086Z,3.20
2023-04-30T17:53:13.909Z,1.57
2023-04-30T17:55:40.598Z,1.70
2023-04-30T17:58:10.144Z,1.60
2023-04-30T18:00:39.065Z,1.47
2023-04-30T18:03:06.589Z,1.40
2023-04-30T18:05:35.540Z,1.90
2023-04-30T18:08:02.462Z,1.70
2023-04-30T18:10:29.113Z,1.80
2023-04-30T18:12:58.113Z,2.37
2023-04-30T18:15:24.621Z,2.03
2023-04-30T18:17:51.308Z,2.10
2023-04-30T18:20:18.118Z,2.90
2023-04-30T18:22:44.862Z,2.90
2023-04-30T18:25:13.105Z,3.13
2023-04-30T18:27:43.398Z,2.33
2023-04-30T18:30:10.639Z,2.60
2023-04-30T18:32:37.449Z,2.40
2023-04-30T18:35:04.620Z,2.10
2023-04-30T18:37:31.968Z,2.60
2023-04-30T18:39:59.175Z,2.90
2023-04-30T18:42:26.020Z,3.57
2023-04-30T18:44:52.520Z,3.97
2023-04-30T18:47:19.186Z,5.90
2023-04-30T18:49:45.747Z,4.27
2023-04-30T18:52:12.320Z,3.33
2023-04-30T18:54:38.903Z,3.60
2023-04-30T18:57:06.311Z,3.60
2023-04-30T18:59:33.315Z,3.60
2023-04-30T19:02:00.218Z,3.80
2023-04-30T19:04:27.292Z,3.83
2023-04-30T19:06:55.614Z,3.13
2023-04-30T19:09:22.205Z,5.13
2023-04-30T19:11:49.017Z,5.37
2023-04-30T19:14:15.522Z,4.50
2023-04-30T19:16:42.022Z,4.73
2023-04-30T19:19:08.631Z,4.40
2023-04-30T19:21:36.310Z,4.17
2023-04-30T19:24:05.891Z,3.70
2023-04-30T19:26:32.934Z,3.40
2023-04-30T19:28:59.856Z,4.10
2023-04-30T19:31:26.794Z,3.33
2023-04-30T19:33:53.512Z,3.37
2023-04-30T19:36:20.212Z,4.00
2023-04-30T19:38:46.725Z,3.97
2023-04-30T19:41:13.599Z,4.00
2023-04-30T19:43:40.148Z,4.10
2023-04-30T19:46:07.557Z,4.87
2023-04-30T19:48:34.158Z,5.70
2023-04-30T19:51:03.522Z,5.50
2023-04-30T19:53:30.318Z,5.27
2023-04-30T19:55:57.402Z,5.10
2023-04-30T19:58:23.931Z,4.67
2023-04-30T20:00:50.470Z,4.97
2023-04-30T20:03:17.964Z,4.27
2023-04-30T20:05:44.696Z,6.67
2023-04-30T20:08:11.262Z,5.57
2023-04-30T20:10:38.863Z,5.53
2023-04-30T20:13:06.062Z,4.67
2023-04-30T20:15:33.013Z,4.97
2023-04-30T20:18:01.334Z,4.50
2023-04-30T20:20:29.034Z,4.50
2023-04-30T20:22:56.194Z,4.60
2023-04-30T20:25:25.823Z,4.23
2023-04-30T20:27:52.271Z,5.07
2023-04-30T20:30:18.825Z,3.73
2023-04-30T20:32:45.499Z,4.30
2023-04-30T20:35:12.004Z,4.43
2023-04-30T20:37:38.501Z,4.00
2023-04-30T20:40:08.101Z,4.10
2023-04-30T20:42:34.861Z,4.20
2023-04-30T20:45:03.168Z,4.73
2023-04-30T20:47:31.886Z,4.93
2023-04-30T20:49:58.650Z,5.73
2023-04-30T20:52:25.389Z,6.30
2023-04-30T20:54:51.990Z,5.57
2023-04-30T20:57:18.489Z,5.23
2023-04-30T20:59:44.945Z,6.20
2023-04-30T21:02:11.788Z,5.83
2023-04-30T21:04:38.318Z,6.33
2023-04-30T21:07:05.109Z,6.93
2023-04-30T21:09:32.773Z,7.20
2023-04-30T21:11:59.456Z,6.97
2023-04-30T21:14:25.954Z,6.90
2023-04-30T21:16:52.616Z,7.93
2023-04-30T21:19:19.098Z,7.17
2023-04-30T21:21:46.360Z,6.73
2023-04-30T21:24:13.132Z,7.80
2023-04-30T21:26:39.715Z,7.20
2023-04-30T21:29:06.171Z,8.23
2023-04-30T21:31:32.810Z,7.90
2023-04-30T21:33:59.357Z,6.73
2023-04-30T21:36:25.849Z,5.83
2023-04-30T21:38:52.569Z,5.00
2023-04-30T21:41:19.764Z,4.60
2023-04-30T21:43:46.285Z,4.67
2023-04-30T21:46:14.302Z,5.20
2023-04-30T21:48:41.167Z,4.93
2023-04-30T21:51:17.434Z,5.30
2023-04-30T21:53:44.456Z,4.93
2023-04-30T21:56:11.651Z,5.13
2023-04-30T21:58:38.701Z,5.93
2023-04-30T22:01:05.365Z,4.77
2023-04-30T22:03:32.151Z,5.70
2023-04-30T22:05:59.265Z,6.27
2023-04-30T22:08:26.042Z,5.50
2023-04-30T22:10:58.412Z,6.23
2023-04-30T22:13:28.398Z,6.57
2023-04-30T22:15:55.277Z,6.17
2023-04-30T22:18:22.705Z,6.40
2023-04-30T22:20:49.972Z,5.83
2023-04-30T22:23:17.144Z,6.10
2023-04-30T22:25:43.627Z,6.13
2023-04-30T22:28:10.275Z,6.07
2023-04-30T22:30:37.727Z,5.93
2023-04-30T22:33:04.407Z,6.33
2023-04-30T22:35:32.760Z,6.63
2023-04-30T22:38:00.480Z,5.80
2023-04-30T22:40:27.096Z,6.67
2023-04-30T22:42:54.112Z,6.53
2023-04-30T22:45:20.698Z,6.17
2023-04-30T22:47:47.336Z,6.43
2023-04-30T22:50:13.917Z,6.33
2023-04-30T22:52:40.377Z,6.17
2023-04-30T22:55:07.458Z,6.03
2023-04-30T22:57:33.958Z,6.50
2023-04-30T23:00:00.873Z,6.00
2023-04-30T23:02:28.675Z,5.40
2023-04-30T23:04:55.375Z,5.83
2023-04-30T23:07:21.965Z,5.40
2023-04-30T23:09:49.267Z,5.83
2023-04-30T23:12:16.001Z,6.03
2023-04-30T23:14:42.488Z,5.70
2023-04-30T23:17:09.089Z,4.97
2023-04-30T23:19:35.847Z,5.27
2023-04-30T23:22:02.311Z,5.23
2023-04-30T23:24:28.812Z,5.03
2023-04-30T23:26:57.720Z,4.60
2023-04-30T23:29:25.053Z,4.13
2023-04-30T23:31:53.806Z,4.47
2023-04-30T23:34:20.793Z,4.40
2023-04-30T23:36:47.235Z,4.67
2023-04-30T23:39:13.716Z,4.03
2023-04-30T23:41:40.324Z,4.53
2023-04-30T23:44:06.790Z,5.03
2023-04-30T23:46:33.256Z,4.30
2023-04-30T23:48:59.804Z,4.50
2023-04-30T23:51:26.245Z,4.63
2023-04-30T23:53:52.944Z,4.20
2023-04-30T23:56:19.453Z,4.30
2023-04-30T23:58:45.966Z,4.73
